sensor_id;sensor_type;location;lat;lon;timestamp;P1;durP1;ratioP1;P2;durP2;ratioP2
59474;SDS011;45288;51.136;16.928;2023-06-26T00:01:14;761.22;;;702.20;;
59474;SDS011;45288;51.136;16.928;2023-06-26T00:03:40;953.40;;;881.47;;
59474;SDS011;45288;51.136;16.928;2023-06-26T00:06:06;915.55;;;846.53;;
59474;SDS011;45288;51.136;16.928;2023-06-26T00:08:32;879.95;;;812.53;;
59474;SDS011;45288;51.136;16.928;2023-06-26T00:10:57;857.43;;;791.83;;
59474;SDS011;45288;51.136;16.928;2023-06-26T00:13:23;873.55;;;806.53;;
59474;SDS011;45288;51.136;16.928;2023-06-26T00:15:50;872.25;;;805.97;;
59474;SDS011;45288;51.136;16.928;2023-06-26T00:18:15;916.97;;;848.07;;
59474;SDS011;45288;51.136;16.928;2023-06-26T00:20:41;575.05;;;529.42;;
59474;SDS011;45288;51.136;16.928;2023-06-26T00:23:06;606.40;;;558.60;;
59474;SDS011;45288;51.136;16.928;2023-06-26T00:25:33;592.83;;;545.25;;
59474;SDS011;45288;51.136;16.928;2023-06-26T00:27:59;539.90;;;497.40;;
59474;SDS011;45288;51.136;16.928;2023-06-26T00:30:25;1057.72;;;979.47;;
59474;SDS011;45288;51.136;16.928;2023-06-26T00:32:51;560.30;;;515.50;;
59474;SDS011;45288;51.136;16.928;2023-06-26T00:35:17;339.38;;;314.45;;
59474;SDS011;45288;51.136;16.928;2023-06-26T00:37:44;536.08;;;494.00;;
59474;SDS011;45288;51.136;16.928;2023-06-26T00:40:09;525.22;;;484.25;;
59474;SDS011;45288;51.136;16.928;2023-06-26T00:42:35;299.70;;;277.02;;
59474;SDS011;45288;51.136;16.928;2023-06-26T00:45:01;402.90;;;372.50;;
59474;SDS011;45288;51.136;16.928;2023-06-26T00:47:29;359.85;;;332.92;;
59474;SDS011;45288;51.136;16.928;2023-06-26T00:49:55;251.75;;;233.48;;
59474;SDS011;45288;51.136;16.928;2023-06-26T00:52:21;444.73;;;410.33;;
59474;SDS011;45288;51.136;16.928;2023-06-26T00:54:50;511.40;;;470.60;;
59474;SDS011;45288;51.136;16.928;2023-06-26T00:57:19;412.60;;;380.85;;
59474;SDS011;45288;51.136;16.928;2023-06-26T00:59:45;415.57;;;382.80;;
59474;SDS011;45288;51.136;16.928;2023-06-26T01:02:11;419.85;;;387.75;;
59474;SDS011;45288;51.136;16.928;2023-06-26T01:04:37;403.45;;;371.55;;
59474;SDS011;45288;51.136;16.928;2023-06-26T01:07:05;364.98;;;337.58;;
59474;SDS011;45288;51.136;16.928;2023-06-26T01:09:33;441.65;;;406.83;;
59474;SDS011;45288;51.136;16.928;2023-06-26T01:11:59;505.90;;;466.27;;
59474;SDS011;45288;51.136;16.928;2023-06-26T01:14:24;309.80;;;286.23;;
59474;SDS011;45288;51.136;16.928;2023-06-26T01:16:50;452.17;;;417.33;;
59474;SDS011;45288;51.136;16.928;2023-06-26T01:19:22;483.92;;;446.45;;
59474;SDS011;45288;51.136;16.928;2023-06-26T01:21:51;385.20;;;355.90;;
59474;SDS011;45288;51.136;16.928;2023-06-26T01:24:22;497.10;;;458.20;;
59474;SDS011;45288;51.136;16.928;2023-06-26T01:26:53;497.17;;;458.02;;
59474;SDS011;45288;51.136;16.928;2023-06-26T01:29:19;525.22;;;484.63;;
59474;SDS011;45288;51.136;16.928;2023-06-26T01:31:46;497.27;;;459.03;;
59474;SDS011;45288;51.136;16.928;2023-06-26T01:34:15;574.93;;;530.10;;
59474;SDS011;45288;51.136;16.928;2023-06-26T01:36:41;507.00;;;467.65;;
59474;SDS011;45288;51.136;16.928;2023-06-26T01:39:07;505.15;;;466.17;;
59474;SDS011;45288;51.136;16.928;2023-06-26T01:41:34;489.17;;;451.10;;
59474;SDS011;45288;51.136;16.928;2023-06-26T01:54:29;474.63;;;437.85;;
59474;SDS011;45288;51.136;16.928;2023-06-26T01:56:56;355.30;;;328.63;;
59474;SDS011;45288;51.136;16.928;2023-06-26T01:59:22;331.07;;;306.33;;
59474;SDS011;45288;51.136;16.928;2023-06-26T02:01:49;320.17;;;296.50;;
59474;SDS011;45288;51.136;16.928;2023-06-26T02:04:15;366.67;;;339.03;;
59474;SDS011;45288;51.136;16.928;2023-06-26T02:06:40;551.65;;;508.38;;
59474;SDS011;45288;51.136;16.928;2023-06-26T02:09:06;508.27;;;468.35;;
59474;SDS011;45288;51.136;16.928;2023-06-26T02:11:33;525.42;;;483.92;;
59474;SDS011;45288;51.136;16.928;2023-06-26T02:13:59;110.37;;;102.00;;
59474;SDS011;45288;51.136;16.928;2023-06-26T02:16:25;109.78;;;101.68;;
59474;SDS011;45288;51.136;16.928;2023-06-26T02:18:50;109.10;;;99.90;;
59474;SDS011;45288;51.136;16.928;2023-06-26T02:21:16;158.45;;;146.77;;
59474;SDS011;45288;51.136;16.928;2023-06-26T02:23:42;132.00;;;120.97;;
59474;SDS011;45288;51.136;16.928;2023-06-26T02:26:08;116.22;;;107.35;;
59474;SDS011;45288;51.136;16.928;2023-06-26T02:28:33;125.40;;;115.40;;
59474;SDS011;45288;51.136;16.928;2023-06-26T02:31:00;138.88;;;128.52;;
59474;SDS011;45288;51.136;16.928;2023-06-26T02:33:27;138.48;;;127.80;;
59474;SDS011;45288;51.136;16.928;2023-06-26T02:35:52;95.53;;;87.23;;
59474;SDS011;45288;51.136;16.928;2023-06-26T02:38:18;82.63;;;75.88;;
59474;SDS011;45288;51.136;16.928;2023-06-26T02:40:46;202.27;;;186.85;;
59474;SDS011;45288;51.136;16.928;2023-06-26T02:43:13;167.80;;;155.45;;
59474;SDS011;45288;51.136;16.928;2023-06-26T02:45:40;147.98;;;136.50;;
59474;SDS011;45288;51.136;16.928;2023-06-26T02:48:06;119.53;;;109.90;;
59474;SDS011;45288;51.136;16.928;2023-06-26T02:50:32;259.40;;;239.68;;
59474;SDS011;45288;51.136;16.928;2023-06-26T02:53:12;237.68;;;219.75;;
59474;SDS011;45288;51.136;16.928;2023-06-26T02:55:40;170.77;;;157.48;;
59474;SDS011;45288;51.136;16.928;2023-06-26T02:58:06;226.60;;;210.40;;
59474;SDS011;45288;51.136;16.928;2023-06-26T03:00:33;150.55;;;138.77;;
59474;SDS011;45288;51.136;16.928;2023-06-26T03:03:02;177.45;;;164.20;;
59474;SDS011;45288;51.136;16.928;2023-06-26T03:05:29;177.60;;;163.98;;
59474;SDS011;45288;51.136;16.928;2023-06-26T03:07:56;154.20;;;142.07;;
59474;SDS011;45288;51.136;16.928;2023-06-26T03:10:22;153.82;;;142.23;;
59474;SDS011;45288;51.136;16.928;2023-06-26T03:12:48;156.53;;;144.37;;
59474;SDS011;45288;51.136;16.928;2023-06-26T03:15:16;140.10;;;129.48;;
59474;SDS011;45288;51.136;16.928;2023-06-26T03:17:42;76.60;;;68.88;;
59474;SDS011;45288;51.136;16.928;2023-06-26T03:20:12;263.93;;;244.47;;
59474;SDS011;45288;51.136;16.928;2023-06-26T03:22:46;264.20;;;243.52;;
59474;SDS011;45288;51.136;16.928;2023-06-26T03:25:13;270.38;;;250.32;;
59474;SDS011;45288;51.136;16.928;2023-06-26T03:27:39;280.70;;;259.47;;
59474;SDS011;45288;51.136;16.928;2023-06-26T03:30:05;277.48;;;256.83;;
59474;SDS011;45288;51.136;16.928;2023-06-26T03:32:35;279.42;;;258.27;;
59474;SDS011;45288;51.136;16.928;2023-06-26T03:35:01;279.57;;;258.37;;
59474;SDS011;45288;51.136;16.928;2023-06-26T03:37:29;265.90;;;245.65;;
59474;SDS011;45288;51.136;16.928;2023-06-26T03:39:55;268.43;;;248.07;;
59474;SDS011;45288;51.136;16.928;2023-06-26T03:42:21;236.50;;;218.50;;
59474;SDS011;45288;51.136;16.928;2023-06-26T03:44:47;216.90;;;199.90;;
59474;SDS011;45288;51.136;16.928;2023-06-26T03:47:16;215.73;;;199.48;;
59474;SDS011;45288;51.136;16.928;2023-06-26T03:49:42;146.40;;;134.55;;
59474;SDS011;45288;51.136;16.928;2023-06-26T03:52:08;227.32;;;210.50;;
59474;SDS011;45288;51.136;16.928;2023-06-26T03:54:33;89.83;;;81.20;;
59474;SDS011;45288;51.136;16.928;2023-06-26T03:56:59;394.38;;;363.95;;
59474;SDS011;45288;51.136;16.928;2023-06-26T03:59:25;216.60;;;200.23;;
59474;SDS011;45288;51.136;16.928;2023-06-26T04:01:53;187.70;;;173.63;;
59474;SDS011;45288;51.136;16.928;2023-06-26T04:04:19;545.20;;;502.60;;
59474;SDS011;45288;51.136;16.928;2023-06-26T04:06:44;245.57;;;227.33;;
59474;SDS011;45288;51.136;16.928;2023-06-26T04:09:10;240.68;;;222.80;;
59474;SDS011;45288;51.136;16.928;2023-06-26T04:11:36;180.33;;;166.43;;
59474;SDS011;45288;51.136;16.928;2023-06-26T04:14:02;258.58;;;238.70;;
59474;SDS011;45288;51.136;16.928;2023-06-26T04:16:28;224.10;;;207.65;;
59474;SDS011;45288;51.136;16.928;2023-06-26T04:18:54;251.30;;;231.63;;
59474;SDS011;45288;51.136;16.928;2023-06-26T04:21:21;254.48;;;235.70;;
59474;SDS011;45288;51.136;16.928;2023-06-26T04:23:50;303.67;;;281.00;;
59474;SDS011;45288;51.136;16.928;2023-06-26T04:26:16;420.90;;;387.77;;
59474;SDS011;45288;51.136;16.928;2023-06-26T04:28:42;196.10;;;180.65;;
59474;SDS011;45288;51.136;16.928;2023-06-26T04:31:08;238.37;;;219.50;;
59474;SDS011;45288;51.136;16.928;2023-06-26T04:33:34;189.07;;;174.50;;
59474;SDS011;45288;51.136;16.928;2023-06-26T04:36:03;137.90;;;127.07;;
59474;SDS011;45288;51.136;16.928;2023-06-26T04:38:29;138.23;;;127.10;;
59474;SDS011;45288;51.136;16.928;2023-06-26T04:40:55;115.93;;;106.30;;
59474;SDS011;45288;51.136;16.928;2023-06-26T04:43:23;463.57;;;426.70;;
59474;SDS011;45288;51.136;16.928;2023-06-26T04:45:49;391.47;;;360.53;;
59474;SDS011;45288;51.136;16.928;2023-06-26T04:48:15;389.15;;;358.40;;
59474;SDS011;45288;51.136;16.928;2023-06-26T04:50:41;386.03;;;356.17;;
59474;SDS011;45288;51.136;16.928;2023-06-26T04:53:06;453.85;;;418.20;;
59474;SDS011;45288;51.136;16.928;2023-06-26T04:55:32;366.93;;;338.53;;
59474;SDS011;45288;51.136;16.928;2023-06-26T04:57:58;359.23;;;330.60;;
59474;SDS011;45288;51.136;16.928;2023-06-26T05:00:23;304.13;;;280.45;;
59474;SDS011;45288;51.136;16.928;2023-06-26T05:02:50;440.30;;;405.10;;
59474;SDS011;45288;51.136;16.928;2023-06-26T05:05:26;298.70;;;275.83;;
59474;SDS011;45288;51.136;16.928;2023-06-26T05:07:53;390.23;;;359.75;;
59474;SDS011;45288;51.136;16.928;2023-06-26T05:10:19;810.90;;;747.42;;
59474;SDS011;45288;51.136;16.928;2023-06-26T05:12:44;1000.23;;;924.23;;
59474;SDS011;45288;51.136;16.928;2023-06-26T05:15:10;819.10;;;755.60;;
59474;SDS011;45288;51.136;16.928;2023-06-26T05:17:36;673.60;;;619.53;;
59474;SDS011;45288;51.136;16.928;2023-06-26T05:20:02;1234.43;;;999.90;;
59474;SDS011;45288;51.136;16.928;2023-06-26T05:22:29;1212.07;;;999.90;;
59474;SDS011;45288;51.136;16.928;2023-06-26T05:24:55;824.75;;;760.13;;
59474;SDS011;45288;51.136;16.928;2023-06-26T05:27:24;854.40;;;788.43;;
59474;SDS011;45288;51.136;16.928;2023-06-26T05:29:50;1229.20;;;999.90;;
59474;SDS011;45288;51.136;16.928;2023-06-26T05:32:16;859.08;;;792.72;;
59474;SDS011;45288;51.136;16.928;2023-06-26T05:34:48;695.03;;;639.33;;
59474;SDS011;45288;51.136;16.928;2023-06-26T05:37:20;860.88;;;793.83;;
59474;SDS011;45288;51.136;16.928;2023-06-26T05:39:45;957.80;;;884.17;;
59474;SDS011;45288;51.136;16.928;2023-06-26T05:42:12;738.63;;;679.43;;
59474;SDS011;45288;51.136;16.928;2023-06-26T05:44:37;627.15;;;576.35;;
59474;SDS011;45288;51.136;16.928;2023-06-26T05:47:03;814.53;;;750.17;;
59474;SDS011;45288;51.136;16.928;2023-06-26T05:49:29;707.33;;;650.65;;
59474;SDS011;45288;51.136;16.928;2023-06-26T05:51:54;949.97;;;876.47;;
59474;SDS011;45288;51.136;16.928;2023-06-26T05:54:20;684.87;;;628.27;;
59474;SDS011;45288;51.136;16.928;2023-06-26T05:56:47;744.25;;;684.03;;
59474;SDS011;45288;51.136;16.928;2023-06-26T05:59:14;642.10;;;589.63;;
59474;SDS011;45288;51.136;16.928;2023-06-26T06:01:40;900.38;;;828.97;;
59474;SDS011;45288;51.136;16.928;2023-06-26T06:04:07;898.67;;;827.72;;
59474;SDS011;45288;51.136;16.928;2023-06-26T06:06:32;909.97;;;838.27;;
59474;SDS011;45288;51.136;16.928;2023-06-26T06:08:58;1023.65;;;943.60;;
59474;SDS011;45288;51.136;16.928;2023-06-26T06:11:24;719.47;;;660.47;;
59474;SDS011;45288;51.136;16.928;2023-06-26T06:13:49;1186.63;;;999.90;;
59474;SDS011;45288;51.136;16.928;2023-06-26T06:16:16;1280.87;;;999.90;;
59474;SDS011;45288;51.136;16.928;2023-06-26T06:18:41;1284.15;;;999.90;;
59474;SDS011;45288;51.136;16.928;2023-06-26T06:21:07;1102.30;;;999.90;;
59474;SDS011;45288;51.136;16.928;2023-06-26T06:23:33;799.77;;;734.40;;
59474;SDS011;45288;51.136;16.928;2023-06-26T06:25:59;843.55;;;775.70;;
59474;SDS011;45288;51.136;16.928;2023-06-26T06:28:24;334.07;;;307.53;;
59474;SDS011;45288;51.136;16.928;2023-06-26T06:30:50;875.42;;;804.17;;
59474;SDS011;45288;51.136;16.928;2023-06-26T06:33:16;531.95;;;487.15;;
59474;SDS011;45288;51.136;16.928;2023-06-26T06:35:43;510.10;;;467.10;;
59474;SDS011;45288;51.136;16.928;2023-06-26T06:38:09;624.97;;;572.17;;
59474;SDS011;45288;51.136;16.928;2023-06-26T06:40:35;894.53;;;822.43;;
59474;SDS011;45288;51.136;16.928;2023-06-26T06:43:00;453.45;;;415.67;;
59474;SDS011;45288;51.136;16.928;2023-06-26T06:45:26;448.45;;;411.13;;
59474;SDS011;45288;51.136;16.928;2023-06-26T06:47:52;522.67;;;478.20;;
59474;SDS011;45288;51.136;16.928;2023-06-26T06:50:18;322.33;;;296.77;;
59474;SDS011;45288;51.136;16.928;2023-06-26T06:52:43;390.57;;;358.17;;
59474;SDS011;45288;51.136;16.928;2023-06-26T06:55:09;352.30;;;324.13;;
59474;SDS011;45288;51.136;16.928;2023-06-26T06:57:35;521.83;;;478.02;;
59474;SDS011;45288;51.136;16.928;2023-06-26T07:00:06;552.53;;;505.80;;
59474;SDS011;45288;51.136;16.928;2023-06-26T07:02:37;589.03;;;539.08;;
59474;SDS011;45288;51.136;16.928;2023-06-26T07:05:03;638.72;;;584.80;;
59474;SDS011;45288;51.136;16.928;2023-06-26T07:07:30;609.50;;;558.03;;
59474;SDS011;45288;51.136;16.928;2023-06-26T07:10:06;661.63;;;605.67;;
59474;SDS011;45288;51.136;16.928;2023-06-26T07:12:33;692.88;;;634.75;;
59474;SDS011;45288;51.136;16.928;2023-06-26T07:15:00;499.73;;;458.37;;
59474;SDS011;45288;51.136;16.928;2023-06-26T07:17:27;445.67;;;408.57;;
59474;SDS011;45288;51.136;16.928;2023-06-26T07:19:53;489.40;;;448.17;;
59474;SDS011;45288;51.136;16.928;2023-06-26T07:22:19;496.87;;;455.07;;
59474;SDS011;45288;51.136;16.928;2023-06-26T07:24:46;769.47;;;705.67;;
59474;SDS011;45288;51.136;16.928;2023-06-26T07:27:13;718.92;;;659.28;;
59474;SDS011;45288;51.136;16.928;2023-06-26T07:29:39;856.95;;;786.50;;
59474;SDS011;45288;51.136;16.928;2023-06-26T07:32:05;688.90;;;631.47;;
59474;SDS011;45288;51.136;16.928;2023-06-26T07:34:31;713.20;;;653.53;;
59474;SDS011;45288;51.136;16.928;2023-06-26T07:36:56;640.92;;;586.70;;
59474;SDS011;45288;51.136;16.928;2023-06-26T07:39:23;650.85;;;596.40;;
59474;SDS011;45288;51.136;16.928;2023-06-26T07:41:48;727.13;;;666.07;;
59474;SDS011;45288;51.136;16.928;2023-06-26T07:44:15;468.15;;;428.90;;
59474;SDS011;45288;51.136;16.928;2023-06-26T07:46:41;510.90;;;467.60;;
59474;SDS011;45288;51.136;16.928;2023-06-26T07:49:07;499.13;;;457.00;;
59474;SDS011;45288;51.136;16.928;2023-06-26T07:51:33;362.30;;;333.27;;
59474;SDS011;45288;51.136;16.928;2023-06-26T07:53:58;560.33;;;512.30;;
59474;SDS011;45288;51.136;16.928;2023-06-26T07:56:24;570.25;;;522.55;;
59474;SDS011;45288;51.136;16.928;2023-06-26T07:58:50;844.58;;;774.80;;
59474;SDS011;45288;51.136;16.928;2023-06-26T08:01:15;907.07;;;832.37;;
59474;SDS011;45288;51.136;16.928;2023-06-26T08:03:41;793.60;;;727.30;;
59474;SDS011;45288;51.136;16.928;2023-06-26T08:06:07;869.40;;;797.08;;
59474;SDS011;45288;51.136;16.928;2023-06-26T08:08:33;491.98;;;450.15;;
59474;SDS011;45288;51.136;16.928;2023-06-26T08:10:58;751.10;;;689.75;;
59474;SDS011;45288;51.136;16.928;2023-06-26T08:13:24;570.10;;;520.83;;
59474;SDS011;45288;51.136;16.928;2023-06-26T08:15:50;437.35;;;401.00;;
59474;SDS011;45288;51.136;16.928;2023-06-26T08:18:17;610.25;;;559.30;;
59474;SDS011;45288;51.136;16.928;2023-06-26T08:20:43;928.53;;;851.67;;
59474;SDS011;45288;51.136;16.928;2023-06-26T08:23:08;517.55;;;473.15;;
59474;SDS011;45288;51.136;16.928;2023-06-26T08:25:34;1144.63;;;999.90;;
59474;SDS011;45288;51.136;16.928;2023-06-26T08:28:00;1048.30;;;964.38;;
59474;SDS011;45288;51.136;16.928;2023-06-26T08:30:25;915.55;;;839.70;;
59474;SDS011;45288;51.136;16.928;2023-06-26T08:32:54;1319.70;;;999.90;;
59474;SDS011;45288;51.136;16.928;2023-06-26T08:35:20;1266.50;;;999.90;;
59474;SDS011;45288;51.136;16.928;2023-06-26T08:37:46;543.50;;;496.27;;
59474;SDS011;45288;51.136;16.928;2023-06-26T08:40:13;1010.23;;;927.40;;
59474;SDS011;45288;51.136;16.928;2023-06-26T08:42:42;449.52;;;410.92;;
59474;SDS011;45288;51.136;16.928;2023-06-26T08:45:07;547.85;;;501.13;;
59474;SDS011;45288;51.136;16.928;2023-06-26T08:47:34;267.73;;;246.18;;
59474;SDS011;45288;51.136;16.928;2023-06-26T08:50:08;719.38;;;660.85;;
59474;SDS011;45288;51.136;16.928;2023-06-26T08:52:36;339.95;;;312.05;;
59474;SDS011;45288;51.136;16.928;2023-06-26T08:55:04;314.42;;;288.98;;
59474;SDS011;45288;51.136;16.928;2023-06-26T08:57:31;315.88;;;289.67;;
59474;SDS011;45288;51.136;16.928;2023-06-26T08:59:57;400.52;;;365.20;;
59474;SDS011;45288;51.136;16.928;2023-06-26T09:02:23;328.33;;;301.60;;
59474;SDS011;45288;51.136;16.928;2023-06-26T09:04:49;247.45;;;227.05;;
59474;SDS011;45288;51.136;16.928;2023-06-26T09:07:16;254.98;;;235.43;;
59474;SDS011;45288;51.136;16.928;2023-06-26T09:09:42;229.93;;;211.52;;
59474;SDS011;45288;51.136;16.928;2023-06-26T09:12:08;231.30;;;212.73;;
59474;SDS011;45288;51.136;16.928;2023-06-26T09:14:34;242.18;;;222.05;;
59474;SDS011;45288;51.136;16.928;2023-06-26T09:17:00;272.75;;;250.98;;
59474;SDS011;45288;51.136;16.928;2023-06-26T09:19:26;238.30;;;219.07;;
59474;SDS011;45288;51.136;16.928;2023-06-26T09:21:52;237.45;;;218.15;;
59474;SDS011;45288;51.136;16.928;2023-06-26T09:24:18;309.50;;;284.55;;
59474;SDS011;45288;51.136;16.928;2023-06-26T09:26:44;402.70;;;368.30;;
59474;SDS011;45288;51.136;16.928;2023-06-26T09:29:09;471.83;;;430.83;;
59474;SDS011;45288;51.136;16.928;2023-06-26T09:31:36;792.88;;;725.20;;
59474;SDS011;45288;51.136;16.928;2023-06-26T09:34:09;255.32;;;234.60;;
59474;SDS011;45288;51.136;16.928;2023-06-26T09:36:41;430.00;;;392.52;;
59474;SDS011;45288;51.136;16.928;2023-06-26T09:39:34;424.20;;;387.60;;
59474;SDS011;45288;51.136;16.928;2023-06-26T09:42:06;206.93;;;189.85;;
59474;SDS011;45288;51.136;16.928;2023-06-26T09:44:59;229.13;;;209.70;;
59474;SDS011;45288;51.136;16.928;2023-06-26T09:47:32;357.23;;;327.35;;
59474;SDS011;45288;51.136;16.928;2023-06-26T09:50:26;280.27;;;257.58;;
59474;SDS011;45288;51.136;16.928;2023-06-26T09:53:09;237.33;;;218.13;;
59474;SDS011;45288;51.136;16.928;2023-06-26T09:56:07;396.35;;;362.73;;
59474;SDS011;45288;51.136;16.928;2023-06-26T09:58:42;327.23;;;299.63;;
59474;SDS011;45288;51.136;16.928;2023-06-26T10:01:39;324.65;;;297.25;;
59474;SDS011;45288;51.136;16.928;2023-06-26T10:04:11;248.63;;;228.50;;
59474;SDS011;45288;51.136;16.928;2023-06-26T10:07:04;308.00;;;282.05;;
59474;SDS011;45288;51.136;16.928;2023-06-26T10:09:40;259.40;;;238.38;;
59474;SDS011;45288;51.136;16.928;2023-06-26T10:12:36;229.55;;;211.27;;
59474;SDS011;45288;51.136;16.928;2023-06-26T10:15:17;232.73;;;214.10;;
59474;SDS011;45288;51.136;16.928;2023-06-26T10:18:11;259.13;;;236.63;;
59474;SDS011;45288;51.136;16.928;2023-06-26T10:20:45;288.60;;;264.73;;
59474;SDS011;45288;51.136;16.928;2023-06-26T10:23:13;441.92;;;403.48;;
59474;SDS011;45288;51.136;16.928;2023-06-26T10:25:40;340.55;;;312.60;;
59474;SDS011;45288;51.136;16.928;2023-06-26T10:28:09;370.83;;;339.17;;
59474;SDS011;45288;51.136;16.928;2023-06-26T10:30:37;355.57;;;325.57;;
59474;SDS011;45288;51.136;16.928;2023-06-26T10:33:05;400.77;;;366.02;;
59474;SDS011;45288;51.136;16.928;2023-06-26T10:35:31;358.77;;;328.17;;
59474;SDS011;45288;51.136;16.928;2023-06-26T10:38:01;440.83;;;402.48;;
59474;SDS011;45288;51.136;16.928;2023-06-26T10:40:42;555.17;;;505.67;;
59474;SDS011;45288;51.136;16.928;2023-06-26T10:43:09;547.35;;;498.55;;
59474;SDS011;45288;51.136;16.928;2023-06-26T10:45:35;551.50;;;502.80;;
59474;SDS011;45288;51.136;16.928;2023-06-26T10:48:04;402.35;;;367.77;;
59474;SDS011;45288;51.136;16.928;2023-06-26T10:50:31;342.33;;;313.67;;
59474;SDS011;45288;51.136;16.928;2023-06-26T10:53:07;1044.97;;;960.03;;
59474;SDS011;45288;51.136;16.928;2023-06-26T10:55:33;707.83;;;647.13;;
59474;SDS011;45288;51.136;16.928;2023-06-26T10:57:59;712.10;;;650.05;;
59474;SDS011;45288;51.136;16.928;2023-06-26T11:00:24;718.05;;;655.58;;
59474;SDS011;45288;51.136;16.928;2023-06-26T11:02:50;666.60;;;607.87;;
59474;SDS011;45288;51.136;16.928;2023-06-26T11:05:26;485.75;;;442.98;;
59474;SDS011;45288;51.136;16.928;2023-06-26T11:10:48;295.48;;;270.60;;
59474;SDS011;45288;51.136;16.928;2023-06-26T11:13:14;594.65;;;541.33;;
59474;SDS011;45288;51.136;16.928;2023-06-26T11:15:42;509.88;;;465.05;;
59474;SDS011;45288;51.136;16.928;2023-06-26T11:18:07;431.42;;;393.90;;
59474;SDS011;45288;51.136;16.928;2023-06-26T11:20:33;575.83;;;525.20;;
59474;SDS011;45288;51.136;16.928;2023-06-26T11:22:59;573.88;;;522.78;;
59474;SDS011;45288;51.136;16.928;2023-06-26T11:25:25;647.78;;;591.10;;
59474;SDS011;45288;51.136;16.928;2023-06-26T11:27:53;326.47;;;298.90;;
59474;SDS011;45288;51.136;16.928;2023-06-26T11:30:22;558.55;;;508.75;;
59474;SDS011;45288;51.136;16.928;2023-06-26T11:32:48;613.50;;;558.80;;
59474;SDS011;45288;51.136;16.928;2023-06-26T11:35:22;458.10;;;417.80;;
59474;SDS011;45288;51.136;16.928;2023-06-26T11:37:49;472.90;;;430.90;;
59474;SDS011;45288;51.136;16.928;2023-06-26T11:40:18;416.83;;;380.13;;
59474;SDS011;45288;51.136;16.928;2023-06-26T11:42:44;352.77;;;322.73;;
59474;SDS011;45288;51.136;16.928;2023-06-26T11:45:10;293.67;;;269.67;;
59474;SDS011;45288;51.136;16.928;2023-06-26T11:47:37;272.05;;;250.10;;
59474;SDS011;45288;51.136;16.928;2023-06-26T11:50:04;241.23;;;221.45;;
59474;SDS011;45288;51.136;16.928;2023-06-26T11:52:32;527.92;;;483.58;;
59474;SDS011;45288;51.136;16.928;2023-06-26T11:54:58;674.42;;;615.15;;
59474;SDS011;45288;51.136;16.928;2023-06-26T11:57:24;526.37;;;479.60;;
59474;SDS011;45288;51.136;16.928;2023-06-26T11:59:50;479.70;;;437.02;;
59474;SDS011;45288;51.136;16.928;2023-06-26T12:02:15;599.33;;;546.13;;
59474;SDS011;45288;51.136;16.928;2023-06-26T12:04:42;620.78;;;566.00;;
59474;SDS011;45288;51.136;16.928;2023-06-26T12:07:08;268.20;;;246.13;;
59474;SDS011;45288;51.136;16.928;2023-06-26T12:09:42;496.98;;;453.00;;
59474;SDS011;45288;51.136;16.928;2023-06-26T12:12:09;529.83;;;482.52;;
59474;SDS011;45288;51.136;16.928;2023-06-26T12:14:36;424.70;;;387.13;;
59474;SDS011;45288;51.136;16.928;2023-06-26T12:17:11;253.55;;;232.88;;
59474;SDS011;45288;51.136;16.928;2023-06-26T12:19:46;236.88;;;217.65;;
59474;SDS011;45288;51.136;16.928;2023-06-26T12:22:15;345.45;;;316.33;;
59474;SDS011;45288;51.136;16.928;2023-06-26T12:24:42;472.55;;;430.80;;
59474;SDS011;45288;51.136;16.928;2023-06-26T12:27:12;528.75;;;481.40;;
59474;SDS011;45288;51.136;16.928;2023-06-26T12:29:39;497.97;;;453.97;;
59474;SDS011;45288;51.136;16.928;2023-06-26T12:32:08;515.05;;;469.20;;
59474;SDS011;45288;51.136;16.928;2023-06-26T12:34:34;683.33;;;622.75;;
59474;SDS011;45288;51.136;16.928;2023-06-26T12:37:09;788.60;;;719.97;;
59474;SDS011;45288;51.136;16.928;2023-06-26T12:39:48;407.13;;;371.67;;
59474;SDS011;45288;51.136;16.928;2023-06-26T12:42:18;579.22;;;528.00;;
59474;SDS011;45288;51.136;16.928;2023-06-26T12:44:44;493.83;;;450.67;;
59474;SDS011;45288;51.136;16.928;2023-06-26T12:47:10;417.08;;;380.30;;
59474;SDS011;45288;51.136;16.928;2023-06-26T12:49:39;443.65;;;404.48;;
59474;SDS011;45288;51.136;16.928;2023-06-26T12:52:06;456.35;;;415.48;;
59474;SDS011;45288;51.136;16.928;2023-06-26T12:54:33;590.80;;;538.00;;
59474;SDS011;45288;51.136;16.928;2023-06-26T12:56:58;517.08;;;470.92;;
59474;SDS011;45288;51.136;16.928;2023-06-26T12:59:25;484.55;;;441.55;;
59474;SDS011;45288;51.136;16.928;2023-06-26T13:01:50;452.05;;;412.08;;
59474;SDS011;45288;51.136;16.928;2023-06-26T13:04:17;564.92;;;513.70;;
59474;SDS011;45288;51.136;16.928;2023-06-26T13:06:42;572.03;;;520.55;;
59474;SDS011;45288;51.136;16.928;2023-06-26T13:09:08;418.80;;;382.00;;
59474;SDS011;45288;51.136;16.928;2023-06-26T13:11:34;772.10;;;707.67;;
59474;SDS011;45288;51.136;16.928;2023-06-26T13:14:01;342.93;;;313.97;;
59474;SDS011;45288;51.136;16.928;2023-06-26T13:16:27;774.83;;;706.95;;
59474;SDS011;45288;51.136;16.928;2023-06-26T13:18:53;501.05;;;456.40;;
59474;SDS011;45288;51.136;16.928;2023-06-26T13:21:18;887.13;;;810.40;;
59474;SDS011;45288;51.136;16.928;2023-06-26T13:23:44;563.33;;;513.45;;
59474;SDS011;45288;51.136;16.928;2023-06-26T13:26:10;444.42;;;405.48;;
59474;SDS011;45288;51.136;16.928;2023-06-26T13:28:37;375.10;;;342.85;;
59474;SDS011;45288;51.136;16.928;2023-06-26T13:31:03;445.45;;;406.17;;
59474;SDS011;45288;51.136;16.928;2023-06-26T13:33:29;517.50;;;471.75;;
59474;SDS011;45288;51.136;16.928;2023-06-26T13:35:55;440.23;;;401.20;;
59474;SDS011;45288;51.136;16.928;2023-06-26T13:38:21;456.20;;;415.63;;
59474;SDS011;45288;51.136;16.928;2023-06-26T13:40:53;381.80;;;348.23;;
59474;SDS011;45288;51.136;16.928;2023-06-26T13:43:20;378.17;;;345.27;;
59474;SDS011;45288;51.136;16.928;2023-06-26T13:45:47;473.70;;;431.52;;
59474;SDS011;45288;51.136;16.928;2023-06-26T13:48:13;370.65;;;338.33;;
59474;SDS011;45288;51.136;16.928;2023-06-26T13:50:39;329.70;;;301.80;;
59474;SDS011;45288;51.136;16.928;2023-06-26T13:53:04;311.73;;;284.67;;
59474;SDS011;45288;51.136;16.928;2023-06-26T13:55:31;450.50;;;410.07;;
59474;SDS011;45288;51.136;16.928;2023-06-26T13:57:57;390.33;;;355.90;;
59474;SDS011;45288;51.136;16.928;2023-06-26T14:00:24;428.67;;;390.27;;